Time;durP1;ratioP1;P1;durP2;ratioP2;P2;SDS_P1;SDS_P2;PMS_P1;PMS_P2;Temp;Humidity;BMP_temperature;BMP_pressure;BME280_temperature;BME280_humidity;BME280_pressure;Samples;Min_cycle;Max_cycle;Signal;HPM_P1;HPM_P2
2023/12/19 08:04:46;;;;;;;2.37;1.93;;;22.80;59.50;;;;;;5050267;28;20459;-85
2023/12/19 08:07:13;;;;;;;2.60;1.90;;;22.70;59.50;;;;;;5031541;28;20957;-85
2023/12/19 08:09:40;;;;;;;6.37;1.50;;;22.80;59.40;;;;;;5033277;28;20442;-84
2023/12/19 08:12:07;;;;;;;3.80;1.87;;;22.80;59.30;;;;;;5032740;28;20446;-88
2023/12/19 08:14:34;;;;;;;2.07;1.80;;;22.80;59.30;;;;;;5032429;28;20825;-82
2023/12/19 08:17:01;;;;;;;2.13;1.40;;;22.80;59.30;;;;;;5032236;28;20453;-90
2023/12/19 08:19:31;;;;;;;3.47;2.10;;;22.80;59.20;;;;;;5032764;28;20475;-88
2023/12/19 08:21:59;;;;;;;3.00;2.00;;;22.80;59.20;;;;;;5032968;28;20800;-82
2023/12/19 08:24:26;;;;;;;4.03;2.13;;;22.80;59.20;;;;;;5032333;28;20529;-84
2023/12/19 08:26:53;;;;;;;2.13;1.67;;;22.80;59.70;;;;;;5031367;28;20434;-84
2023/12/19 08:29:20;;;;;;;2.67;1.70;;;22.80;59.10;;;;;;5032577;28;20437;-83
2023/12/19 08:31:47;;;;;;;1.90;1.30;;;22.80;59.10;;;;;;5032591;28;20434;-83
2023/12/19 08:34:18;;;;;;;2.80;1.67;;;22.80;59.10;;;;;;5032030;28;20441;-83
2023/12/19 08:36:44;;;;;;;3.10;1.50;;;22.80;59.20;;;;;;5030771;28;20540;-83
2023/12/19 08:39:13;;;;;;;2.60;1.57;;;22.80;59.20;;;;;;5030884;28;20457;-83
2023/12/19 08:41:39;;;;;;;1.93;1.50;;;22.80;59.10;;;;;;5030732;28;20442;-83
2023/12/19 08:44:06;;;;;;;2.50;1.90;;;22.80;59.20;;;;;;5030771;28;20456;-83
2023/12/19 08:46:34;;;;;;;2.50;1.67;;;22.80;59.20;;;;;;5030646;28;20442;-83
2023/12/19 08:49:02;;;;;;;1.77;1.67;;;22.80;59.20;;;;;;5030620;28;20482;-83
2023/12/19 08:51:29;;;;;;;2.30;1.33;;;22.80;59.20;;;;;;5032944;28;20438;-84
2023/12/19 08:53:56;;;;;;;2.43;1.30;;;22.80;59.10;;;;;;5032876;28;20446;-83
2023/12/19 08:56:24;;;;;;;1.80;1.50;;;22.80;59.10;;;;;;5032592;28;20486;-84
2023/12/19 08:58:51;;;;;;;2.70;1.83;;;22.80;59.00;;;;;;5032837;28;20434;-83
2023/12/19 09:01:19;;;;;;;1.97;1.77;;;22.80;59.10;;;;;;5032853;28;20441;-83
2023/12/19 09:03:45;;;;;;;2.37;1.63;;;22.80;59.10;;;;;;5032761;28;20500;-83
2023/12/19 09:06:12;;;;;;;1.77;1.30;;;22.80;59.10;;;;;;5058443;28;20472;-83
2023/12/19 09:08:39;;;;;;;2.67;1.60;;;22.80;59.10;;;;;;5072553;28;20445;-83
2023/12/19 09:11:07;;;;;;;2.50;1.47;;;22.80;59.10;;;;;;5072697;28;20441;-84
2023/12/19 09:13:38;;;;;;;2.47;1.40;;;22.80;59.10;;;;;;5072737;28;20531;-83
2023/12/19 09:16:06;;;;;;;1.67;1.20;;;22.80;59.10;;;;;;5072499;28;20510;-83
2023/12/19 09:18:33;;;;;;;1.87;1.67;;;22.90;59.30;;;;;;5072569;28;20451;-83
2023/12/19 09:21:00;;;;;;;1.80;1.27;;;22.90;59.00;;;;;;5072346;28;20467;-83
2023/12/19 09:23:27;;;;;;;4.40;1.50;;;22.80;59.10;;;;;;5072512;28;20544;-83
2023/12/19 09:25:54;;;;;;;1.70;1.10;;;22.90;59.10;;;;;;5073478;28;20451;-83
2023/12/19 09:28:23;;;;;;;1.77;1.47;;;22.90;59.00;;;;;;5076262;28;20437;-84
2023/12/19 09:30:51;;;;;;;1.40;1.17;;;22.80;59.00;;;;;;5076271;28;20497;-83
2023/12/19 09:33:18;;;;;;;2.17;1.97;;;22.80;59.00;;;;;;5076429;28;20830;-84
2023/12/19 09:35:45;;;;;;;1.73;1.30;;;22.80;59.10;;;;;;5075935;28;20493;-83
2023/12/19 09:38:12;;;;;;;1.83;1.33;;;22.90;59.10;;;;;;5076097;28;20438;-84
2023/12/19 09:40:39;;;;;;;2.77;2.00;;;22.80;59.10;;;;;;5075810;28;20428;-83
2023/12/19 09:43:07;;;;;;;2.40;1.40;;;22.90;59.00;;;;;;5075964;28;20932;-84
2023/12/19 09:45:34;;;;;;;1.60;1.13;;;23.00;59.20;;;;;;5075947;28;20436;-83
2023/12/19 09:48:04;;;;;;;2.00;1.40;;;23.00;59.20;;;;;;5075888;28;20444;-83
2023/12/19 09:50:33;;;;;;;1.90;1.40;;;22.90;59.00;;;;;;5075684;28;20452;-84
2023/12/19 09:53:01;;;;;;;2.17;1.20;;;22.90;59.00;;;;;;5075683;28;20437;-84
2023/12/19 09:55:28;;;;;;;2.23;1.20;;;22.80;59.10;;;;;;5075586;28;20494;-83
2023/12/19 09:57:57;;;;;;;1.53;1.20;;;22.90;59.10;;;;;;5075879;28;20444;-83
2023/12/19 10:00:25;;;;;;;2.33;1.30;;;22.90;59.10;;;;;;5075504;28;20456;-83
2023/12/19 10:02:53;;;;;;;1.97;1.13;;;22.90;59.00;;;;;;5075685;28;20436;-83
2023/12/19 10:05:22;;;;;;;1.33;1.10;;;22.80;59.00;;;;;;5075358;28;20491;-84
2023/12/19 10:07:48;;;;;;;1.50;1.40;;;22.80;59.00;;;;;;5075830;28;20443;-84
2023/12/19 10:10:16;;;;;;;1.60;1.20;;;22.80;59.10;;;;;;5074764;28;20436;-83
2023/12/19 10:12:49;;;;;;;1.77;1.13;;;22.80;59.10;;;;;;5071437;28;20818;-86
2023/12/19 10:15:16;;;;;;;1.40;1.30;;;22.70;59.00;;;;;;5075421;28;20488;-86
2023/12/19 10:18:06;;;;;;;1.53;1.13;;;22.80;59.00;;;;;;5075884;28;20432;-84
2023/12/19 10:20:37;;;;;;;1.83;1.23;;;22.80;59.00;;;;;;5075626;28;20460;-90
2023/12/19 10:23:04;;;;;;;1.53;1.30;;;22.80;59.10;;;;;;5075634;28;20810;-84
2023/12/19 10:25:31;;;;;;;4.07;1.40;;;22.90;59.00;;;;;;5075082;28;20440;-83
2023/12/19 10:28:07;;;;;;;1.67;1.47;;;22.80;59.10;;;;;;5075275;28;20439;-85
2023/12/19 10:30:34;;;;;;;1.30;1.20;;;22.90;59.10;;;;;;5075352;28;20950;-91
2023/12/19 10:33:01;;;;;;;1.60;1.50;;;22.90;59.10;;;;;;5075320;28;20446;-83
2023/12/19 10:35:37;;;;;;;1.20;1.07;;;22.90;59.20;;;;;;5075025;28;20979;-84
2023/12/19 10:38:04;;;;;;;2.40;1.50;;;22.90;59.10;;;;;;5074066;28;20429;-83
2023/12/19 10:40:31;;;;;;;1.90;1.30;;;22.90;59.10;;;;;;5074966;28;20450;-90
2023/12/19 10:42:58;;;;;;;1.30;1.20;;;22.90;59.10;;;;;;5074909;28;20927;-90
2023/12/19 10:45:26;;;;;;;2.13;1.20;;;22.80;58.90;;;;;;5074945;28;20444;-83
2023/12/19 10:47:52;;;;;;;2.07;1.10;;;22.90;58.90;;;;;;5075044;28;20921;-83
2023/12/19 10:50:20;;;;;;;1.43;1.30;;;22.90;59.00;;;;;;5074584;28;20466;-83
2023/12/19 10:52:51;;;;;;;1.60;1.30;;;22.90;58.90;;;;;;5074575;28;20444;-83
2023/12/19 10:55:21;;;;;;;3.40;1.10;;;22.90;58.90;;;;;;5074504;28;20491;-83
2023/12/19 10:57:49;;;;;;;1.37;1.20;;;22.90;59.00;;;;;;5074729;28;20523;-83
2023/12/19 11:00:22;;;;;;;2.13;1.47;;;22.90;59.00;;;;;;5074496;28;20531;-87
2023/12/19 11:02:58;;;;;;;1.13;1.00;;;22.90;59.00;;;;;;5074570;28;20439;-83
2023/12/19 11:05:29;;;;;;;1.70;1.00;;;22.90;58.80;;;;;;5074201;28;20533;-83
2023/12/19 11:08:03;;;;;;;2.00;1.57;;;22.90;58.90;;;;;;5074520;28;20440;-83
2023/12/19 11:10:33;;;;;;;1.30;1.13;;;22.90;58.90;;;;;;5073544;28;20445;-83
2023/12/19 11:13:00;;;;;;;2.50;1.23;;;22.90;58.90;;;;;;5074281;28;20432;-83
2023/12/19 11:15:28;;;;;;;4.27;1.20;;;22.90;58.90;;;;;;5074001;28;20486;-83
2023/12/19 11:17:59;;;;;;;1.60;1.17;;;22.90;58.90;;;;;;5074314;28;20957;-83
2023/12/19 11:20:40;;;;;;;1.30;1.00;;;22.90;58.90;;;;;;5073718;28;20479;-83
2023/12/19 11:23:17;;;;;;;1.43;0.97;;;22.90;58.90;;;;;;5074019;28;20436;-83
2023/12/19 11:25:50;;;;;;;1.10;0.90;;;22.90;58.90;;;;;;5065015;28;20444;-83
2023/12/19 11:28:17;;;;;;;3.43;1.10;;;22.90;58.80;;;;;;5072442;28;20451;-83
2023/12/19 11:30:43;;;;;;;4.43;1.30;;;22.90;58.60;;;;;;5072696;28;20440;-83
2023/12/19 11:33:12;;;;;;;2.33;1.20;;;22.90;58.80;;;;;;5072949;28;20445;-83
2023/12/19 11:35:41;;;;;;;8.50;1.30;;;22.90;59.00;;;;;;5073146;28;20576;-83
2023/12/19 11:38:25;;;;;;;3.23;1.20;;;22.90;58.90;;;;;;5073181;28;20528;-83
2023/12/19 11:40:54;;;;;;;2.70;1.50;;;22.90;59.00;;;;;;5073009;28;20432;-84
2023/12/19 11:43:52;;;;;;;6.03;1.50;;;22.90;59.00;;;;;;5073249;28;20432;-83
2023/12/19 11:46:19;;;;;;;3.67;1.10;;;22.90;59.00;;;;;;5072475;28;20448;-83
2023/12/19 11:48:49;;;;;;;2.73;1.30;;;22.80;59.00;;;;;;5072512;28;20536;-83
2023/12/19 11:51:50;;;;;;;3.10;1.40;;;22.90;59.10;;;;;;5073367;28;20460;-84
2023/12/19 11:54:18;;;;;;;3.33;1.47;;;22.90;59.00;;;;;;5073508;28;20440;-83
2023/12/19 11:56:45;;;;;;;3.73;1.40;;;22.90;59.00;;;;;;5073213;28;20484;-83
2023/12/19 11:59:13;;;;;;;3.13;1.20;;;22.90;59.00;;;;;;5073424;28;20532;-83
2023/12/19 12:01:41;;;;;;;2.23;1.03;;;22.90;58.90;;;;;;5073339;28;20436;-83
2023/12/19 12:04:10;;;;;;;1.20;1.03;;;22.90;58.90;;;;;;5073315;28;20523;-83
2023/12/19 12:06:37;;;;;;;1.40;1.30;;;22.90;58.90;;;;;;5073116;28;20468;-83
2023/12/19 12:09:05;;;;;;;3.17;1.23;;;22.90;59.00;;;;;;5073205;28;20436;-83
2023/12/19 12:11:47;;;;;;;1.37;0.93;;;22.90;58.90;;;;;;5073222;28;20442;-84
2023/12/19 12:14:15;;;;;;;1.30;1.20;;;22.90;59.00;;;;;;5073247;28;20435;-84
2023/12/19 12:16:42;;;;;;;1.23;0.97;;;22.90;59.00;;;;;;5073095;28;20506;-83
2023/12/19 12:19:10;;;;;;;4.53;1.80;;;22.90;58.90;;;;;;5072941;28;21008;-83
2023/12/19 12:21:43;;;;;;;2.53;1.37;;;22.90;58.90;;;;;;5072976;28;20439;-84
2023/12/19 12:24:16;;;;;;;2.80;1.10;;;22.90;58.90;;;;;;5073243;28;20440;-83
2023/12/19 12:26:43;;;;;;;2.53;1.20;;;22.90;58.80;;;;;;5073170;28;20463;-83
2023/12/19 12:29:11;;;;;;;4.17;1.00;;;23.00;58.80;;;;;;5073045;28;20442;-83
2023/12/19 12:31:38;;;;;;;4.23;1.33;;;22.90;58.70;;;;;;5073068;28;20515;-83
2023/12/19 12:34:05;;;;;;;3.20;1.57;;;22.90;58.80;;;;;;5072944;28;20443;-83
2023/12/19 12:36:32;;;;;;;2.53;1.57;;;22.90;59.40;;;;;;5072696;28;20498;-83
2023/12/19 12:38:58;;;;;;;2.10;1.40;;;22.90;58.80;;;;;;5072973;28;20916;-83
2023/12/19 12:41:25;;;;;;;3.20;1.27;;;22.90;58.80;;;;;;5072814;28;20515;-83
2023/12/19 12:43:54;;;;;;;1.73;1.10;;;22.90;58.80;;;;;;5072958;28;20795;-83
2023/12/19 12:46:24;;;;;;;6.30;1.30;;;22.90;58.70;;;;;;5072742;28;20444;-84
2023/12/19 12:49:02;;;;;;;1.67;1.10;;;22.90;58.80;;;;;;5072712;28;20441;-83
2023/12/19 12:51:30;;;;;;;7.83;1.20;;;22.90;58.70;;;;;;5072940;28;20455;-90
2023/12/19 12:53:58;;;;;;;3.27;1.33;;;22.90;58.80;;;;;;5072759;28;20570;-83
2023/12/19 12:56:30;;;;;;;2.17;1.10;;;22.90;58.70;;;;;;5072615;28;20484;-84
2023/12/19 12:59:01;;;;;;;3.70;1.00;;;22.90;58.80;;;;;;5072756;28;20912;-83
2023/12/19 13:01:29;;;;;;;3.10;1.40;;;22.90;59.00;;;;;;5074799;28;20531;-84
2023/12/19 13:03:57;;;;;;;3.40;1.10;;;22.90;59.30;;;;;;5076753;28;20448;-83
2023/12/19 13:06:24;;;;;;;4.50;1.10;;;22.90;58.70;;;;;;5076503;28;20482;-84
2023/12/19 13:08:52;;;;;;;1.97;0.90;;;22.90;58.80;;;;;;5076652;28;20436;-83
2023/12/19 13:11:19;;;;;;;4.07;1.10;;;22.90;58.80;;;;;;5076669;28;20437;-84
2023/12/19 13:13:46;;;;;;;3.33;1.03;;;22.90;58.70;;;;;;5076584;28;20787;-83
2023/12/19 13:16:13;;;;;;;6.20;1.40;;;22.90;58.70;;;;;;5076414;28;20814;-83
2023/12/19 13:18:44;;;;;;;1.47;1.00;;;22.90;58.80;;;;;;5076465;28;20436;-84
2023/12/19 13:21:11;;;;;;;1.60;1.00;;;22.90;58.80;;;;;;5076191;28;20889;-83
2023/12/19 13:23:38;;;;;;;1.30;1.10;;;22.90;58.70;;;;;;5076330;28;20440;-83
2023/12/19 13:26:05;;;;;;;3.30;1.00;;;23.00;58.80;;;;;;5076221;28;20440;-83
2023/12/19 13:28:32;;;;;;;3.87;1.30;;;22.90;58.70;;;;;;5076186;28;20436;-84
2023/12/19 13:30:59;;;;;;;2.53;1.17;;;22.90;58.70;;;;;;5076335;28;20436;-84
2023/12/19 13:33:25;;;;;;;1.10;0.97;;;22.90;58.70;;;;;;5076326;28;20448;-84
2023/12/19 13:35:54;;;;;;;3.43;1.23;;;22.90;58.80;;;;;;5075937;28;20483;-84
2023/12/19 13:38:20;;;;;;;1.50;0.80;;;22.90;58.70;;;;;;5076138;28;20440;-83
2023/12/19 13:40:47;;;;;;;2.63;1.20;;;22.90;58.80;;;;;;5075970;28;20840;-83
2023/12/19 13:43:14;;;;;;;2.13;1.00;;;22.90;58.80;;;;;;5076055;28;20803;-83
2023/12/19 13:45:41;;;;;;;1.97;1.10;;;22.90;58.70;;;;;;5075919;28;20928;-83
2023/12/19 13:48:08;;;;;;;1.43;1.00;;;22.90;58.70;;;;;;5075894;28;20802;-89
2023/12/19 13:50:36;;;;;;;3.63;0.90;;;22.90;58.70;;;;;;5075818;28;20533;-84
2023/12/19 13:53:04;;;;;;;2.13;0.90;;;22.90;58.70;;;;;;5075835;28;20436;-84
2023/12/19 13:55:31;;;;;;;1.30;1.07;;;22.90;58.70;;;;;;5075781;28;20456;-84
2023/12/19 13:57:58;;;;;;;1.67;0.90;;;22.90;58.70;;;;;;5075651;28;20554;-83
2023/12/19 14:00:25;;;;;;;1.80;0.87;;;22.90;58.70;;;;;;5075646;28;20444;-83
2023/12/19 14:02:52;;;;;;;3.87;0.90;;;22.90;58.70;;;;;;5075795;28;20438;-84
2023/12/19 14:05:18;;;;;;;1.10;0.80;;;22.90;58.70;;;;;;5075440;28;20511;-84
2023/12/19 14:07:46;;;;;;;2.80;1.13;;;22.90;58.70;;;;;;5075708;28;20436;-84
2023/12/19 14:10:14;;;;;;;1.23;0.90;;;23.00;58.80;;;;;;5075554;28;20440;-84
2023/12/19 14:12:43;;;;;;;1.20;1.10;;;22.90;58.60;;;;;;5075446;28;20502;-89
2023/12/19 14:15:13;;;;;;;1.53;0.87;;;22.90;58.70;;;;;;5075394;28;20451;-83
2023/12/19 14:17:41;;;;;;;1.23;0.90;;;22.90;58.70;;;;;;5075362;28;20484;-83
2023/12/19 14:20:09;;;;;;;1.50;0.90;;;22.90;58.70;;;;;;5075142;28;20467;-84
2023/12/19 14:22:36;;;;;;;1.83;1.00;;;22.90;59.20;;;;;;5075249;28;20475;-84
2023/12/19 14:25:03;;;;;;;1.40;1.07;;;22.90;58.60;;;;;;5075243;28;20475;-83
2023/12/19 14:27:31;;;;;;;1.10;0.83;;;22.90;58.60;;;;;;5075161;28;20438;-84
2023/12/19 14:29:58;;;;;;;1.00;0.70;;;22.90;58.60;;;;;;5075183;28;20443;-84
2023/12/19 14:32:25;;;;;;;1.30;1.00;;;22.90;58.60;;;;;;5075096;28;20487;-83
2023/12/19 14:34:52;;;;;;;2.33;0.87;;;22.90;58.60;;;;;;5074992;28;20447;-84
2023/12/19 14:37:19;;;;;;;1.20;0.90;;;22.90;58.60;;;;;;5074996;28;20491;-84
2023/12/19 14:39:46;;;;;;;1.47;1.00;;;22.90;58.60;;;;;;5075032;28;20459;-83
2023/12/19 14:42:13;;;;;;;2.77;1.00;;;22.90;58.60;;;;;;5075037;28;20527;-83
2023/12/19 14:44:42;;;;;;;1.87;1.00;;;22.90;58.60;;;;;;5074990;28;20443;-83
2023/12/19 14:47:08;;;;;;;1.10;0.90;;;22.90;58.60;;;;;;5073838;28;20439;-83
2023/12/19 14:49:37;;;;;;;3.00;1.00;;;22.90;59.20;;;;;;5074916;28;20506;-83
2023/12/19 14:52:05;;;;;;;1.30;0.90;;;22.90;58.60;;;;;;5074917;28;20440;-83
2023/12/19 14:54:31;;;;;;;2.07;0.80;;;22.90;58.60;;;;;;5074714;28;20527;-84
2023/12/19 14:56:58;;;;;;;1.50;1.00;;;22.90;58.60;;;;;;5074595;28;20484;-84
2023/12/19 14:59:25;;;;;;;1.10;0.90;;;22.90;58.60;;;;;;5074639;28;20436;-84
2023/12/19 15:01:53;;;;;;;1.20;0.80;;;22.90;58.60;;;;;;5074669;28;20446;-84
2023/12/19 15:04:20;;;;;;;1.00;0.70;;;22.90;58.60;;;;;;5074568;28;20441;-89
2023/12/19 15:06:47;;;;;;;1.63;1.10;;;22.90;58.60;;;;;;5074539;28;20987;-83
2023/12/19 15:09:13;;;;;;;1.50;0.80;;;22.90;58.60;;;;;;5074608;28;20858;-83
2023/12/19 15:11:40;;;;;;;1.03;0.90;;;22.90;58.60;;;;;;5074579;28;20442;-84
2023/12/19 15:14:08;;;;;;;1.10;0.83;;;22.90;58.60;;;;;;5074480;28;20436;-84
2023/12/19 15:16:37;;;;;;;1.17;0.90;;;22.90;58.60;;;;;;5074327;28;20935;-84
2023/12/19 15:19:06;;;;;;;1.00;0.70;;;22.90;58.60;;;;;;5074313;28;20460;-83
2023/12/19 15:21:33;;;;;;;6.73;1.73;;;22.90;58.60;;;;;;5073601;28;20486;-83
2023/12/19 15:24:00;;;;;;;3.73;1.20;;;22.90;58.50;;;;;;5073156;28;20507;-84
2023/12/19 15:26:26;;;;;;;3.87;0.97;;;22.90;58.70;;;;;;5072943;28;20531;-83
2023/12/19 15:28:53;;;;;;;2.93;1.30;;;22.90;58.70;;;;;;5073361;28;20523;-85
2023/12/19 15:31:20;;;;;;;1.60;1.00;;;22.90;58.70;;;;;;5073476;28;20440;-83
2023/12/19 15:33:47;;;;;;;1.30;0.80;;;22.90;58.70;;;;;;5073479;28;20502;-83
2023/12/19 15:36:20;;;;;;;4.00;1.00;;;22.90;58.80;;;;;;5073926;28;20436;-90
2023/12/19 15:38:46;;;;;;;2.47;1.10;;;22.90;58.80;;;;;;5073906;28;20916;-83
2023/12/19 15:41:14;;;;;;;2.67;1.30;;;22.90;58.80;;;;;;5073846;28;20440;-87
2023/12/19 15:43:42;;;;;;;1.73;1.00;;;22.90;58.70;;;;;;5072868;28;20472;-83
2023/12/19 15:46:10;;;;;;;2.90;1.30;;;22.90;58.80;;;;;;5072476;28;20444;-83
2023/12/19 15:48:37;;;;;;;10.00;1.77;;;23.00;58.80;;;;;;5073089;28;20463;-87
2023/12/19 15:51:04;;;;;;;10.33;1.80;;;23.00;58.70;;;;;;5072708;28;20548;-87
2023/12/19 15:53:32;;;;;;;9.33;1.70;;;22.90;58.80;;;;;;5081711;28;20440;-87
2023/12/19 19:43:55;;;;;;;3.40;0.90;;;23.00;58.80;;;;;;5059619;28;20471;-83
2023/12/19 19:46:25;;;;;;;3.50;1.30;;;22.90;58.50;;;;;;5075859;28;20532;-83
2023/12/19 19:48:51;;;;;;;1.90;1.20;;;22.90;59.50;;;;;;5073735;28;20460;-83
2023/12/19 19:51:20;;;;;;;3.40;1.00;;;22.90;59.70;;;;;;5073821;28;20432;-84
2023/12/19 19:53:47;;;;;;;1.50;0.90;;;22.90;59.70;;;;;;5073770;28;20428;-83
2023/12/19 19:56:14;;;;;;;6.00;1.60;;;23.00;59.80;;;;;;5073815;28;20444;-84
2023/12/19 19:58:40;;;;;;;2.23;1.00;;;23.00;59.90;;;;;;5073662;28;20480;-84
2023/12/19 20:01:08;;;;;;;5.77;1.20;;;23.00;60.00;;;;;;5073767;28;20445;-85
2023/12/19 20:03:37;;;;;;;3.10;1.10;;;23.00;60.00;;;;;;5073850;28;20440;-85
2023/12/19 20:06:04;;;;;;;1.80;1.10;;;23.10;60.10;;;;;;5073715;28;20522;-85
2023/12/19 20:08:32;;;;;;;2.27;1.03;;;23.00;60.20;;;;;;5074020;28;20808;-92
2023/12/19 20:10:59;;;;;;;6.90;1.10;;;23.10;60.20;;;;;;5073634;28;20444;-94
2023/12/19 20:13:25;;;;;;;3.37;1.00;;;23.10;60.40;;;;;;5074243;28;20436;-83
2023/12/19 20:15:52;;;;;;;3.50;1.43;;;23.10;60.40;;;;;;5073399;28;20437;-84
2023/12/19 20:18:19;;;;;;;3.27;1.43;;;23.10;60.40;;;;;;5073669;28;20979;-84
2023/12/19 20:20:47;;;;;;;8.97;1.37;;;23.10;60.40;;;;;;5073554;28;20806;-84
2023/12/19 20:23:14;;;;;;;1.80;0.90;;;23.10;60.50;;;;;;5073896;28;20447;-84
2023/12/19 20:25:41;;;;;;;2.90;1.17;;;23.10;60.40;;;;;;5073262;28;20804;-87
2023/12/19 20:28:08;;;;;;;3.30;1.07;;;23.10;60.40;;;;;;5073199;28;20927;-84
2023/12/19 20:30:35;;;;;;;4.10;1.00;;;23.20;60.60;;;;;;5063800;28;20440;-84
2023/12/19 20:33:05;;;;;;;1.57;0.93;;;23.20;59.20;;;;;;5061718;28;20461;-89
2023/12/19 20:35:32;;;;;;;1.67;1.10;;;23.10;59.80;;;;;;5070216;28;20478;-89
2023/12/19 20:38:00;;;;;;;1.87;0.90;;;23.20;60.40;;;;;;5071178;28;20527;-84
2023/12/19 20:40:28;;;;;;;2.97;1.07;;;23.10;60.30;;;;;;5070554;28;21062;-84
2023/12/19 20:42:56;;;;;;;1.90;1.10;;;23.10;60.30;;;;;;5072826;28;20476;-83
2023/12/19 20:45:23;;;;;;;3.00;1.10;;;23.20;60.50;;;;;;5071875;28;20452;-85
2023/12/19 20:47:50;;;;;;;3.93;1.00;;;23.20;60.30;;;;;;5072151;28;20448;-87
2023/12/19 20:50:18;;;;;;;5.00;1.33;;;23.20;60.00;;;;;;5070696;28;20456;-87
2023/12/19 20:52:45;;;;;;;3.70;1.27;;;23.20;58.40;;;;;;5070526;28;20441;-84
2023/12/19 20:55:13;;;;;;;1.67;1.30;;;23.10;58.70;;;;;;5070907;28;20806;-85
2023/12/19 20:57:40;;;;;;;1.60;1.10;;;23.10;59.70;;;;;;5072510;28;20484;-84
2023/12/19 21:00:09;;;;;;;1.20;1.10;;;23.10;59.80;;;;;;5068549;28;20951;-84
2023/12/19 21:02:36;;;;;;;2.03;0.80;;;23.10;59.80;;;;;;5072213;28;20468;-85
2023/12/19 21:05:03;;;;;;;3.67;1.20;;;23.10;59.90;;;;;;5072380;28;20519;-87
2023/12/19 21:07:31;;;;;;;2.03;1.10;;;23.10;59.90;;;;;;5072530;28;20460;-85
2023/12/19 21:09:57;;;;;;;2.50;1.40;;;23.10;59.90;;;;;;5072524;28;20439;-85
2023/12/19 21:12:26;;;;;;;1.63;1.00;;;23.10;59.90;;;;;;5072486;28;20439;-85
2023/12/19 21:14:52;;;;;;;2.27;0.83;;;23.20;60.00;;;;;;5072447;28;20432;-85
2023/12/19 21:17:19;;;;;;;1.50;1.30;;;23.20;60.00;;;;;;5072366;28;20433;-85
2023/12/19 21:19:46;;;;;;;3.83;1.30;;;23.20;60.00;;;;;;5072302;28;20463;-84
2023/12/19 21:22:14;;;;;;;2.73;1.20;;;23.20;60.10;;;;;;5074117;28;20452;-84
2023/12/19 21:24:41;;;;;;;3.17;1.30;;;23.30;60.10;;;;;;5076312;28;20440;-84
2023/12/19 21:27:07;;;;;;;1.67;1.27;;;23.20;60.00;;;;;;5076279;28;20436;-84
2023/12/19 21:29:36;;;;;;;1.57;1.20;;;23.30;60.00;;;;;;5076338;28;20519;-83
2023/12/19 21:32:03;;;;;;;1.57;1.10;;;23.30;60.00;;;;;;5076172;28;20472;-84
2023/12/19 21:34:30;;;;;;;1.67;1.13;;;23.30;60.10;;;;;;5075932;28;20446;-84
2023/12/19 21:36:56;;;;;;;6.20;1.53;;;23.20;60.00;;;;;;5076112;28;20799;-84
2023/12/19 21:39:23;;;;;;;2.27;1.20;;;23.30;60.10;;;;;;5075982;28;20484;-84
2023/12/19 21:41:50;;;;;;;3.83;1.23;;;23.30;60.00;;;;;;5076006;28;20459;-83
2023/12/19 21:44:17;;;;;;;1.30;1.00;;;23.30;60.00;;;;;;5075404;28;20478;-83
2023/12/19 21:46:45;;;;;;;1.50;1.10;;;23.30;60.00;;;;;;5075972;28;20432;-83
2023/12/19 21:49:12;;;;;;;1.33;1.00;;;23.30;60.00;;;;;;5075980;28;20467;-83
2023/12/19 21:51:39;;;;;;;3.17;1.10;;;23.30;60.00;;;;;;5066534;28;20974;-84
2023/12/19 21:54:08;;;;;;;1.40;1.30;;;23.30;60.10;;;;;;5056062;28;20786;-85
2023/12/19 21:56:36;;;;;;;1.93;1.47;;;23.30;60.10;;;;;;5074177;28;20460;-86
2023/12/19 21:59:03;;;;;;;3.57;1.23;;;23.30;60.00;;;;;;5065562;28;20488;-84
2023/12/19 22:01:30;;;;;;;1.37;1.27;;;23.30;60.00;;;;;;5074285;28;20572;-85
2023/12/19 22:03:58;;;;;;;3.70;1.53;;;23.30;60.00;;;;;;5071930;28;20445;-85
2023/12/19 22:06:25;;;;;;;1.90;0.97;;;23.30;60.00;;;;;;5072253;28;20471;-83
2023/12/19 22:08:52;;;;;;;1.73;1.10;;;23.20;59.90;;;;;;5074822;28;20452;-84
2023/12/19 22:11:19;;;;;;;2.40;1.10;;;23.20;60.00;;;;;;5066900;28;20528;-83
2023/12/19 22:13:45;;;;;;;2.50;1.10;;;23.30;60.00;;;;;;5072413;28;20448;-84
2023/12/19 22:16:19;;;;;;;1.27;1.10;;;23.20;60.00;;;;;;5070114;28;20436;-84
2023/12/19 22:18:46;;;;;;;1.33;1.10;;;23.20;59.90;;;;;;5067249;28;20488;-83
2023/12/19 22:21:19;;;;;;;1.60;1.40;;;23.20;59.90;;;;;;5071714;28;20437;-87
2023/12/19 22:23:46;;;;;;;2.20;1.27;;;23.20;59.90;;;;;;5073940;28;20524;-84
2023/12/19 22:26:13;;;;;;;2.13;0.90;;;23.20;60.00;;;;;;5064464;28;20430;-83
2023/12/19 22:28:40;;;;;;;1.23;1.10;;;23.10;59.90;;;;;;5055436;28;20532;-84
2023/12/19 22:31:07;;;;;;;1.40;1.30;;;23.20;60.00;;;;;;5055009;28;20437;-86
2023/12/19 22:33:34;;;;;;;1.37;1.00;;;23.10;59.90;;;;;;5053518;28;20948;-84
2023/12/19 22:36:01;;;;;;;1.80;1.17;;;23.10;59.90;;;;;;5070136;28;20436;-84
2023/12/19 22:38:29;;;;;;;2.00;1.10;;;23.10;59.90;;;;;;5075045;28;20508;-84
2023/12/19 22:40:56;;;;;;;1.40;1.13;;;23.10;59.90;;;;;;5075568;28;20437;-84
2023/12/19 22:43:23;;;;;;;1.93;1.23;;;23.10;59.90;;;;;;5074875;28;20471;-84
2023/12/19 22:45:49;;;;;;;2.00;1.10;;;23.00;59.80;;;;;;5075312;28;20542;-84
2023/12/19 22:48:16;;;;;;;3.93;1.30;;;23.10;59.90;;;;;;5075199;28;20452;-84
2023/12/19 22:50:46;;;;;;;1.13;1.03;;;23.00;59.90;;;;;;5073200;28;20448;-84
2023/12/19 22:53:13;;;;;;;1.30;1.10;;;23.00;59.90;;;;;;5054935;28;20453;-84
2023/12/19 22:55:44;;;;;;;1.50;1.20;;;23.00;59.90;;;;;;5065992;28;20927;-83
2023/12/19 22:58:11;;;;;;;1.67;1.23;;;23.00;59.80;;;;;;5074805;28;20488;-84
2023/12/19 23:00:38;;;;;;;1.20;1.00;;;23.00;59.90;;;;;;5074914;28;20443;-86
2023/12/19 23:03:06;;;;;;;1.57;1.40;;;23.00;59.90;;;;;;5074883;28;20440;-83
2023/12/19 23:08:55;;;;;;;1.20;1.03;;;23.00;59.90;;;;;;5073124;28;20518;-84
2023/12/19 23:11:23;;;;;;;2.20;1.00;;;22.90;59.80;;;;;;5073461;28;20514;-84
2023/12/19 23:13:50;;;;;;;1.30;1.03;;;22.90;59.80;;;;;;5074554;28;20958;-84
2023/12/19 23:16:17;;;;;;;1.60;1.20;;;22.90;59.80;;;;;;5074809;28;20793;-84
2023/12/19 23:18:43;;;;;;;1.50;1.40;;;22.90;59.80;;;;;;5074902;28;20970;-84
2023/12/19 23:21:10;;;;;;;1.57;1.07;;;22.90;59.80;;;;;;5074475;28;20945;-86
2023/12/19 23:23:37;;;;;;;1.30;1.10;;;22.90;59.80;;;;;;5074213;28;20531;-84
2023/12/19 23:26:04;;;;;;;1.60;1.13;;;22.90;59.80;;;;;;5074288;28;20919;-84
2023/12/19 23:28:32;;;;;;;1.87;1.10;;;22.90;59.80;;;;;;5074163;28;20429;-84
2023/12/19 23:30:59;;;;;;;2.80;1.10;;;22.90;59.80;;;;;;5074357;28;20448;-86
2023/12/19 23:33:26;;;;;;;1.53;0.90;;;22.90;59.80;;;;;;5074295;28;20832;-84
2023/12/19 23:35:53;;;;;;;2.40;1.77;;;23.00;59.90;;;;;;5074121;28;20455;-84
2023/12/19 23:38:19;;;;;;;1.93;0.90;;;22.90;59.80;;;;;;5073359;28;20480;-84
2023/12/19 23:40:46;;;;;;;1.20;1.10;;;22.90;59.80;;;;;;5073824;28;20432;-87
2023/12/19 23:43:14;;;;;;;1.50;1.10;;;22.90;59.80;;;;;;5073992;28;20465;-84
2023/12/19 23:45:42;;;;;;;1.97;1.03;;;22.90;59.90;;;;;;5073731;28;20935;-84
2023/12/19 23:48:09;;;;;;;1.20;1.07;;;22.90;59.80;;;;;;5073837;28;20998;-84
2023/12/19 23:50:36;;;;;;;1.10;1.00;;;22.80;59.80;;;;;;5073835;28;20523;-85
2023/12/19 23:53:03;;;;;;;1.20;1.10;;;22.80;59.80;;;;;;5073997;28;20436;-84
2023/12/19 23:55:29;;;;;;;1.40;1.23;;;22.80;59.80;;;;;;5073929;28;20447;-87
2023/12/19 23:57:56;;;;;;;1.40;1.27;;;22.80;59.80;;;;;;5073742;28;20455;-84
